Time;durP1;ratioP1;P1;durP2;ratioP2;P2;SDS_P1;SDS_P2;PMS_P1;PMS_P2;Temp;Humidity;BMP_temperature;BMP_pressure;BME280_temperature;BME280_humidity;BME280_pressure;Samples;Min_cycle;Max_cycle;Signal;HPM_P1;HPM_P2
2023/03/05 00:00:12;;;;;;;13.45;11.98;;;6.90;99.90;;;;;;5039247;28;20835;-70
2023/03/05 00:02:40;;;;;;;14.20;11.75;;;6.80;99.90;;;;;;5036414;28;20273;-70
2023/03/05 00:05:08;;;;;;;13.80;10.73;;;6.80;99.90;;;;;;5037823;28;20309;-70
2023/03/05 00:07:35;;;;;;;15.00;12.85;;;6.80;99.90;;;;;;5037671;28;20291;-70
2023/03/05 00:10:05;;;;;;;12.93;11.55;;;6.80;99.90;;;;;;5024935;28;20648;-70
2023/03/05 00:12:32;;;;;;;13.38;11.40;;;6.80;99.90;;;;;;5034571;28;20306;-70
2023/03/05 00:15:01;;;;;;;11.07;9.98;;;6.80;99.90;;;;;;5037551;28;20268;-70
2023/03/05 00:17:28;;;;;;;11.98;10.68;;;6.80;99.90;;;;;;5039300;28;20235;-70
2023/03/05 00:19:55;;;;;;;11.05;9.95;;;6.80;99.90;;;;;;5039710;28;22153;-70
2023/03/05 00:22:22;;;;;;;11.73;10.52;;;6.80;99.90;;;;;;5031628;28;20713;-70
2023/03/05 00:24:51;;;;;;;13.30;11.40;;;6.70;99.90;;;;;;5037665;28;20219;-69
2023/03/05 00:27:18;;;;;;;12.65;10.88;;;6.70;99.90;;;;;;5039046;28;20210;-70
2023/03/05 00:29:45;;;;;;;11.63;10.43;;;6.60;99.90;;;;;;5046344;28;20203;-70
2023/03/05 00:32:13;;;;;;;13.23;11.13;;;6.60;99.90;;;;;;5038515;28;20530;-70
2023/03/05 00:34:40;;;;;;;12.65;11.13;;;6.60;99.90;;;;;;5042034;28;20300;-70
2023/03/05 00:37:08;;;;;;;12.18;10.52;;;6.50;99.90;;;;;;5043545;28;20293;-70
2023/03/05 00:39:35;;;;;;;11.95;10.75;;;6.50;99.90;;;;;;5048618;28;20226;-69
2023/03/05 00:42:02;;;;;;;11.80;10.27;;;6.50;99.90;;;;;;5040712;28;20742;-69
2023/03/05 00:44:29;;;;;;;12.10;10.80;;;6.50;99.90;;;;;;5038653;28;20723;-69
2023/03/05 00:46:56;;;;;;;12.07;9.65;;;6.40;99.90;;;;;;5041174;28;20242;-69
2023/03/05 00:49:25;;;;;;;13.32;10.80;;;6.40;99.90;;;;;;5040708;28;20293;-69
2023/03/05 00:51:52;;;;;;;12.23;10.70;;;6.30;99.90;;;;;;5041182;28;20223;-69
2023/03/05 00:54:19;;;;;;;11.90;10.00;;;6.40;99.90;;;;;;5043689;28;20294;-69
2023/03/05 00:56:47;;;;;;;11.98;10.70;;;6.30;99.90;;;;;;5043832;28;20198;-70
2023/03/05 00:59:15;;;;;;;11.98;10.73;;;6.30;99.90;;;;;;5047694;28;23188;-68
2023/03/05 01:01:43;;;;;;;11.27;10.07;;;6.30;99.90;;;;;;5042149;28;20298;-69
2023/03/05 01:04:10;;;;;;;13.77;11.38;;;6.20;99.90;;;;;;5042750;28;20254;-69
2023/03/05 01:06:41;;;;;;;12.30;10.43;;;6.20;99.90;;;;;;5045197;28;20305;-70
2023/03/05 01:09:08;;;;;;;11.38;10.02;;;6.20;99.90;;;;;;5042122;28;20209;-70
2023/03/05 01:11:35;;;;;;;11.18;9.82;;;6.10;99.90;;;;;;5042677;28;20318;-69
2023/03/05 01:14:03;;;;;;;10.75;9.65;;;6.10;99.90;;;;;;5045562;28;20282;-70
2023/03/05 01:16:31;;;;;;;13.02;10.50;;;6.10;99.90;;;;;;5043052;28;20277;-70
2023/03/05 01:18:58;;;;;;;11.45;10.25;;;6.10;99.90;;;;;;5036449;28;20195;-70
2023/03/05 01:21:25;;;;;;;12.20;10.90;;;6.10;99.90;;;;;;5040183;28;21651;-70
2023/03/05 01:23:53;;;;;;;13.60;10.70;;;6.10;99.90;;;;;;5037076;28;20467;-70
2023/03/05 01:26:20;;;;;;;11.43;10.23;;;6.10;99.90;;;;;;5044089;28;20201;-70
2023/03/05 01:28:47;;;;;;;12.90;10.88;;;6.10;99.90;;;;;;5044709;28;20272;-69
2023/03/05 01:31:15;;;;;;;10.90;9.50;;;6.10;99.90;;;;;;5044314;28;20225;-70
2023/03/05 01:33:42;;;;;;;12.50;11.20;;;6.00;99.90;;;;;;5045315;28;20604;-70
2023/03/05 01:36:12;;;;;;;11.73;10.57;;;6.00;99.90;;;;;;5039455;28;20325;-70
2023/03/05 01:38:39;;;;;;;10.52;9.43;;;6.00;99.90;;;;;;5040044;28;20207;-69
2023/03/05 01:41:09;;;;;;;13.25;10.70;;;6.00;99.90;;;;;;5042821;28;20527;-69
2023/03/05 01:43:36;;;;;;;13.73;11.43;;;5.90;99.90;;;;;;5041208;28;20795;-69
2023/03/05 01:46:40;;;;;;;12.07;10.57;;;5.90;99.90;;;;;;5045485;28;20313;-69
2023/03/05 01:49:21;;;;;;;11.88;9.77;;;5.80;99.90;;;;;;5042049;28;20208;-70
2023/03/05 01:52:05;;;;;;;13.23;10.13;;;5.80;99.90;;;;;;5042063;28;20311;-70
2023/03/05 01:54:35;;;;;;;12.23;10.57;;;5.80;99.90;;;;;;5040078;28;20790;-70
2023/03/05 01:57:08;;;;;;;12.52;11.23;;;5.70;99.90;;;;;;5044866;28;20292;-69
2023/03/05 01:59:37;;;;;;;11.60;10.40;;;5.70;99.90;;;;;;5041601;28;20201;-70
2023/03/05 02:02:06;;;;;;;12.07;10.07;;;5.70;99.90;;;;;;5039609;28;20315;-69
2023/03/05 02:04:41;;;;;;;12.55;10.70;;;5.70;99.90;;;;;;5039851;28;20211;-68
2023/03/05 02:07:08;;;;;;;13.48;11.25;;;5.60;99.90;;;;;;5041613;28;20663;-69
2023/03/05 02:09:38;;;;;;;12.40;10.70;;;5.60;99.90;;;;;;5041189;28;20238;-71
2023/03/05 02:12:09;;;;;;;13.13;10.98;;;5.60;99.90;;;;;;5041563;28;20250;-70
2023/03/05 02:14:36;;;;;;;13.68;10.95;;;5.60;99.90;;;;;;5042724;28;20231;-70
2023/03/05 02:17:04;;;;;;;12.23;10.93;;;5.60;99.90;;;;;;5046522;28;20206;-70
2023/03/05 02:19:47;;;;;;;12.27;10.98;;;5.60;99.90;;;;;;5041278;28;20232;-69
2023/03/05 02:22:17;;;;;;;12.85;11.25;;;5.60;99.90;;;;;;5042729;28;20261;-69
2023/03/05 02:24:44;;;;;;;11.27;10.07;;;5.60;99.90;;;;;;5040307;28;20688;-69
2023/03/05 02:27:13;;;;;;;11.25;9.60;;;5.60;99.90;;;;;;5040688;28;20709;-69
2023/03/05 02:29:43;;;;;;;11.52;10.38;;;5.50;99.90;;;;;;5043679;28;20298;-69
2023/03/05 02:32:10;;;;;;;11.27;10.05;;;5.50;99.90;;;;;;5043625;28;20246;-69
2023/03/05 02:34:38;;;;;;;11.45;9.57;;;5.50;99.90;;;;;;5042231;28;20301;-70
2023/03/05 02:37:07;;;;;;;11.75;9.85;;;5.50;99.90;;;;;;5073409;28;20285;-68
2023/03/05 02:39:36;;;;;;;10.85;9.70;;;5.40;99.90;;;;;;5043483;28;20599;-70
2023/03/05 02:42:04;;;;;;;10.27;9.18;;;5.40;99.90;;;;;;5043754;28;20231;-68
2023/03/05 02:44:31;;;;;;;10.93;9.73;;;5.40;99.90;;;;;;5039090;28;20304;-68
2023/03/05 02:46:58;;;;;;;11.80;10.45;;;5.30;99.90;;;;;;5039424;28;20199;-69
2023/03/05 02:49:25;;;;;;;11.52;9.75;;;5.30;99.90;;;;;;5046409;28;20369;-69
2023/03/05 02:51:52;;;;;;;10.07;9.00;;;5.30;99.90;;;;;;5042156;28;20311;-68
2023/03/05 02:54:19;;;;;;;9.90;8.90;;;5.20;99.90;;;;;;5040138;28;20322;-69
2023/03/05 02:56:48;;;;;;;13.20;9.27;;;5.20;99.90;;;;;;5037110;28;20203;-70
2023/03/05 02:59:15;;;;;;;9.82;8.82;;;5.20;99.90;;;;;;5038967;28;20365;-68
2023/03/05 03:01:42;;;;;;;9.30;8.00;;;5.10;99.90;;;;;;5044515;28;20251;-70
2023/03/05 03:04:09;;;;;;;10.07;9.07;;;5.10;99.90;;;;;;5048104;28;20294;-70
2023/03/05 03:06:36;;;;;;;9.68;8.70;;;5.10;99.90;;;;;;5039022;28;20235;-69
2023/03/05 03:09:03;;;;;;;8.82;7.55;;;5.10;99.90;;;;;;5036343;28;20329;-69
2023/03/05 03:11:30;;;;;;;7.57;6.80;;;5.10;99.90;;;;;;5039872;28;20250;-68
2023/03/05 03:13:59;;;;;;;7.40;6.70;;;5.00;99.90;;;;;;5044920;28;20636;-70
2023/03/05 03:16:26;;;;;;;8.60;7.28;;;5.00;99.90;;;;;;5044716;28;20294;-68
2023/03/05 03:18:53;;;;;;;7.95;7.15;;;5.00;99.90;;;;;;5043392;28;20289;-70
2023/03/05 03:21:23;;;;;;;8.02;6.15;;;5.00;99.90;;;;;;5046267;28;20229;-70
2023/03/05 03:23:50;;;;;;;7.00;6.40;;;5.00;99.90;;;;;;5039885;28;20779;-70
2023/03/05 03:26:18;;;;;;;6.15;5.53;;;5.00;99.90;;;;;;5043830;28;20230;-71
2023/03/05 03:28:45;;;;;;;6.97;6.28;;;5.00;99.90;;;;;;5047875;28;20845;-73
2023/03/05 03:31:14;;;;;;;6.55;5.85;;;5.00;99.90;;;;;;5046009;28;20313;-70
2023/03/05 03:33:41;;;;;;;5.93;5.43;;;5.00;99.90;;;;;;5045673;28;20650;-68
2023/03/05 03:36:09;;;;;;;5.63;5.13;;;5.00;99.90;;;;;;5038063;28;20205;-69
2023/03/05 03:38:36;;;;;;;5.95;5.45;;;5.00;99.90;;;;;;5044609;28;20233;-70
2023/03/05 03:41:06;;;;;;;7.30;5.95;;;5.00;99.90;;;;;;5047324;28;20249;-70
2023/03/05 03:43:33;;;;;;;5.65;5.15;;;5.00;99.90;;;;;;5042648;28;20209;-71
2023/03/05 03:46:00;;;;;;;5.88;5.38;;;5.00;99.90;;;;;;5042335;28;20331;-71
2023/03/05 03:48:28;;;;;;;5.90;5.40;;;5.00;99.90;;;;;;5042186;28;20286;-71
2023/03/05 03:50:55;;;;;;;7.05;6.07;;;5.00;99.90;;;;;;5041844;28;20281;-71
2023/03/05 03:53:22;;;;;;;6.60;5.88;;;5.00;99.90;;;;;;5041454;28;20242;-70
2023/03/05 03:55:49;;;;;;;5.97;5.38;;;5.00;99.90;;;;;;5045062;28;20739;-71
2023/03/05 03:58:16;;;;;;;6.10;5.47;;;5.00;99.90;;;;;;5043456;28;20289;-69
2023/03/05 04:00:43;;;;;;;7.88;6.00;;;5.00;99.90;;;;;;5041871;28;20199;-71
2023/03/05 04:03:10;;;;;;;5.97;5.43;;;5.00;99.90;;;;;;5039144;28;20198;-70
2023/03/05 04:05:38;;;;;;;6.30;5.22;;;4.90;99.90;;;;;;5042787;28;20243;-69
2023/03/05 04:08:10;;;;;;;6.40;5.50;;;4.90;99.90;;;;;;5043236;28;20290;-70
2023/03/05 04:10:38;;;;;;;8.32;6.28;;;4.90;99.90;;;;;;5043933;28;20203;-70
2023/03/05 04:13:05;;;;;;;7.97;6.72;;;4.90;99.90;;;;;;5046957;28;20249;-69
2023/03/05 04:15:32;;;;;;;8.07;6.40;;;4.80;99.90;;;;;;5043515;28;20841;-67
2023/03/05 04:18:00;;;;;;;6.93;5.93;;;4.80;99.90;;;;;;5042600;28;20227;-72
2023/03/05 04:20:27;;;;;;;5.72;5.22;;;4.70;99.90;;;;;;5046805;28;20298;-71
2023/03/05 04:22:56;;;;;;;6.60;5.97;;;4.70;99.90;;;;;;5042020;28;20313;-69
2023/03/05 04:25:23;;;;;;;7.00;6.30;;;4.70;99.90;;;;;;5040554;28;20215;-70
2023/03/05 04:27:50;;;;;;;6.25;5.65;;;4.70;99.90;;;;;;5044593;28;20226;-71
2023/03/05 04:30:17;;;;;;;5.53;5.03;;;4.60;99.90;;;;;;5037677;28;20286;-69
2023/03/05 04:32:45;;;;;;;5.78;5.07;;;4.60;99.90;;;;;;5046114;28;20241;-68
2023/03/05 04:35:12;;;;;;;5.38;4.88;;;4.60;99.90;;;;;;5040533;28;20284;-70
2023/03/05 04:37:39;;;;;;;6.68;5.63;;;4.50;99.90;;;;;;5042517;28;20737;-70
2023/03/05 04:40:10;;;;;;;5.53;5.05;;;4.50;99.90;;;;;;5043982;28;20569;-70
2023/03/05 04:42:38;;;;;;;6.13;5.53;;;4.50;99.90;;;;;;5040268;28;20305;-70
2023/03/05 04:45:07;;;;;;;6.07;4.78;;;4.50;99.90;;;;;;5049080;28;20712;-70
2023/03/05 04:47:35;;;;;;;6.70;5.15;;;4.50;99.90;;;;;;5044965;28;20214;-70
2023/03/05 04:50:04;;;;;;;5.70;5.20;;;4.50;99.90;;;;;;5040381;28;20237;-68
2023/03/05 04:52:31;;;;;;;5.80;5.25;;;4.50;99.90;;;;;;5041136;28;20266;-69
2023/03/05 04:54:58;;;;;;;5.45;4.53;;;4.50;99.90;;;;;;5046788;28;20256;-68
2023/03/05 04:57:27;;;;;;;5.18;4.70;;;4.40;99.90;;;;;;5045215;28;20254;-68
2023/03/05 04:59:54;;;;;;;5.22;4.82;;;4.40;99.90;;;;;;5043068;28;20259;-68
2023/03/05 05:02:21;;;;;;;5.57;5.07;;;4.40;99.90;;;;;;5038960;28;20317;-68
2023/03/05 05:04:52;;;;;;;5.40;4.90;;;4.30;99.90;;;;;;5048049;28;20618;-69
2023/03/05 05:07:19;;;;;;;5.07;4.68;;;4.30;99.90;;;;;;5045452;28;20844;-68
2023/03/05 05:09:46;;;;;;;5.28;4.60;;;4.30;99.90;;;;;;5047525;28;20237;-72
2023/03/05 05:12:13;;;;;;;5.75;5.25;;;4.30;99.90;;;;;;5039674;28;20219;-69
2023/03/05 05:14:42;;;;;;;5.88;5.40;;;4.30;99.90;;;;;;5045790;28;20230;-69
2023/03/05 05:17:09;;;;;;;4.93;4.43;;;4.30;99.90;;;;;;5043355;28;20223;-68
2023/03/05 05:19:36;;;;;;;5.13;4.72;;;4.30;99.90;;;;;;5041118;28;20199;-69
2023/03/05 05:22:03;;;;;;;4.90;4.57;;;4.30;99.90;;;;;;5048831;28;20309;-71
2023/03/05 05:24:30;;;;;;;4.82;4.43;;;4.30;99.90;;;;;;5043613;28;20293;-68
2023/03/05 05:26:57;;;;;;;4.82;4.43;;;4.30;99.90;;;;;;5044661;28;20242;-69
2023/03/05 05:29:24;;;;;;;4.72;4.32;;;4.30;99.90;;;;;;5038110;28;20586;-68
2023/03/05 05:31:53;;;;;;;5.38;4.78;;;4.30;99.90;;;;;;5040004;28;20699;-68
2023/03/05 05:34:20;;;;;;;4.70;4.30;;;4.30;99.90;;;;;;5040854;28;20215;-69
2023/03/05 05:36:47;;;;;;;5.10;4.60;;;4.30;99.90;;;;;;5039476;28;20818;-69
2023/03/05 05:39:14;;;;;;;5.82;4.82;;;4.30;99.90;;;;;;5039718;28;20290;-68
2023/03/05 05:41:41;;;;;;;6.22;5.60;;;4.30;99.90;;;;;;5044978;28;20226;-70
2023/03/05 05:44:08;;;;;;;6.97;5.78;;;4.30;99.90;;;;;;5042559;28;20218;-70
2023/03/05 05:46:35;;;;;;;6.00;5.50;;;4.30;99.90;;;;;;5041019;28;20302;-70
2023/03/05 05:49:03;;;;;;;6.03;5.45;;;4.20;99.90;;;;;;5039392;28;20285;-68
2023/03/05 05:51:30;;;;;;;5.63;5.13;;;4.20;99.90;;;;;;5046924;28;20218;-69
2023/03/05 05:53:57;;;;;;;5.55;4.93;;;4.20;99.90;;;;;;5045028;28;20199;-66
2023/03/05 05:56:24;;;;;;;5.25;4.75;;;4.20;99.90;;;;;;5040213;28;20311;-68
2023/03/05 05:58:52;;;;;;;5.15;4.65;;;4.20;99.90;;;;;;5044034;28;20299;-68
2023/03/05 06:01:21;;;;;;;5.20;4.80;;;4.20;99.90;;;;;;5044230;28;20302;-68
2023/03/05 06:03:49;;;;;;;5.10;4.60;;;4.20;99.90;;;;;;5042155;28;20195;-68
2023/03/05 06:06:20;;;;;;;5.20;4.80;;;4.30;99.90;;;;;;5042222;28;20301;-69
2023/03/05 06:08:48;;;;;;;5.28;4.78;;;4.20;99.90;;;;;;5045249;28;20211;-68
2023/03/05 06:11:15;;;;;;;5.80;5.18;;;4.20;99.90;;;;;;5037024;28;20306;-68
2023/03/05 06:13:43;;;;;;;5.75;5.25;;;4.20;99.90;;;;;;5044470;28;20234;-68
2023/03/05 06:16:13;;;;;;;6.18;5.68;;;4.20;99.90;;;;;;5043395;28;20226;-68
2023/03/05 06:18:40;;;;;;;6.07;5.47;;;4.20;99.90;;;;;;5045101;28;20298;-68
2023/03/05 06:21:10;;;;;;;5.85;5.13;;;4.20;99.90;;;;;;5041080;28;20218;-70
2023/03/05 06:23:39;;;;;;;6.25;5.57;;;4.20;99.90;;;;;;5045025;28;20227;-67
2023/03/05 06:26:08;;;;;;;5.10;4.70;;;4.20;99.90;;;;;;5044640;28;20253;-69
2023/03/05 06:28:36;;;;;;;4.35;3.95;;;4.20;99.90;;;;;;5046422;28;20287;-71
2023/03/05 06:31:05;;;;;;;5.22;4.80;;;4.20;99.90;;;;;;5044650;28;20219;-69
2023/03/05 06:33:33;;;;;;;5.55;5.05;;;4.20;99.90;;;;;;5040692;28;20202;-66
2023/03/05 06:36:02;;;;;;;4.68;4.28;;;4.20;99.90;;;;;;5043860;28;20229;-69
2023/03/05 06:38:29;;;;;;;5.07;4.60;;;4.20;99.90;;;;;;5048427;28;20281;-70
2023/03/05 06:41:01;;;;;;;5.38;4.88;;;4.20;99.90;;;;;;5045836;28;20290;-69
2023/03/05 06:43:28;;;;;;;4.57;4.22;;;4.30;99.90;;;;;;5046526;28;20660;-69
2023/03/05 06:46:03;;;;;;;4.18;3.88;;;4.30;99.90;;;;;;5046611;28;20622;-70
2023/03/05 06:48:30;;;;;;;4.50;4.15;;;4.40;99.90;;;;;;5040281;28;20213;-69
2023/03/05 06:50:57;;;;;;;5.05;4.55;;;4.40;99.90;;;;;;5044612;28;20290;-68
2023/03/05 06:53:25;;;;;;;4.30;4.00;;;4.50;99.90;;;;;;5046319;28;20203;-70
2023/03/05 06:55:52;;;;;;;5.22;4.72;;;4.50;99.90;;;;;;5045795;28;20635;-68
2023/03/05 06:58:21;;;;;;;5.75;5.15;;;4.60;99.90;;;;;;5042885;28;22050;-70
2023/03/05 07:00:48;;;;;;;5.45;4.95;;;5.00;99.90;;;;;;5039742;28;20222;-71
2023/03/05 07:03:15;;;;;;;5.63;4.95;;;5.30;99.90;;;;;;5042137;28;20195;-70
2023/03/05 07:05:43;;;;;;;5.63;5.10;;;5.60;99.90;;;;;;5044485;28;20256;-71
2023/03/05 07:08:10;;;;;;;7.18;5.07;;;6.00;99.90;;;;;;5040274;28;20297;-70
2023/03/05 07:10:40;;;;;;;4.97;4.57;;;6.50;99.90;;;;;;5047267;28;20289;-72
2023/03/05 07:13:07;;;;;;;5.53;4.88;;;7.10;99.90;;;;;;5045016;28;20214;-69
2023/03/05 07:15:39;;;;;;;4.93;4.47;;;7.80;99.90;;;;;;5043332;28;20857;-67
2023/03/05 07:18:07;;;;;;;5.60;4.30;;;8.40;99.90;;;;;;5039172;28;20238;-68
2023/03/05 07:20:34;;;;;;;5.10;4.70;;;8.60;99.90;;;;;;5039926;28;20239;-69
2023/03/05 07:23:02;;;;;;;6.20;4.20;;;8.70;99.90;;;;;;5046509;28;20813;-67
2023/03/05 07:25:29;;;;;;;4.50;4.20;;;8.80;99.90;;;;;;5041988;28;20234;-69
2023/03/05 07:27:57;;;;;;;5.28;4.80;;;8.70;99.90;;;;;;5040038;28;20242;-70
2023/03/05 07:30:24;;;;;;;4.70;4.30;;;8.70;99.90;;;;;;5037065;28;20200;-69
2023/03/05 07:32:53;;;;;;;4.38;3.97;;;8.70;99.90;;;;;;5041134;28;20548;-69
2023/03/05 07:35:20;;;;;;;4.70;4.30;;;9.00;99.90;;;;;;5039827;28;20203;-69
2023/03/05 07:37:47;;;;;;;4.85;4.22;;;9.50;99.90;;;;;;5042159;28;20302;-69
2023/03/05 07:40:14;;;;;;;4.63;4.22;;;10.10;99.90;;;;;;5042081;28;20254;-69
2023/03/05 07:42:41;;;;;;;5.03;4.50;;;10.60;99.90;;;;;;5041946;28;20251;-69
2023/03/05 07:45:09;;;;;;;4.43;4.03;;;10.90;99.90;;;;;;5037331;28;20290;-69
2023/03/05 07:47:36;;;;;;;6.78;4.50;;;11.10;99.90;;;;;;5045112;28;20301;-69
2023/03/05 07:50:06;;;;;;;5.20;4.70;;;11.50;99.90;;;;;;5049602;28;20285;-69
2023/03/05 07:52:33;;;;;;;4.80;4.25;;;12.00;99.90;;;;;;5039935;28;20219;-69
2023/03/05 07:55:00;;;;;;;6.03;4.80;;;12.30;99.90;;;;;;5043614;28;20683;-69
2023/03/05 07:57:28;;;;;;;5.25;4.32;;;12.70;99.90;;;;;;5042785;28;20275;-69
2023/03/05 07:59:55;;;;;;;5.15;4.47;;;12.90;99.90;;;;;;5042986;28;20226;-70
2023/03/05 08:02:22;;;;;;;5.65;4.22;;;12.90;99.90;;;;;;5040465;28;20651;-69
2023/03/05 08:04:49;;;;;;;5.22;4.53;;;12.90;99.90;;;;;;5039479;28;20237;-70
2023/03/05 08:07:17;;;;;;;5.97;4.68;;;13.00;99.90;;;;;;5044018;28;20255;-70
2023/03/05 08:09:45;;;;;;;6.10;5.10;;;13.20;99.90;;;;;;5042937;28;20207;-69
2023/03/05 08:12:11;;;;;;;5.50;5.00;;;13.30;99.90;;;;;;5040911;28;20265;-69
2023/03/05 08:14:39;;;;;;;4.85;4.45;;;13.70;99.90;;;;;;5041733;28;20486;-70
2023/03/05 08:17:07;;;;;;;6.10;5.50;;;14.10;99.90;;;;;;5044771;28;20258;-70
2023/03/05 08:19:34;;;;;;;5.20;4.75;;;14.30;99.90;;;;;;5036767;28;20660;-69
2023/03/05 08:22:01;;;;;;;5.80;5.10;;;14.40;99.90;;;;;;5038019;28;20264;-70
2023/03/05 08:24:29;;;;;;;6.03;5.20;;;14.40;99.90;;;;;;5036625;28;20286;-70
2023/03/05 08:26:57;;;;;;;6.10;4.55;;;14.70;99.90;;;;;;5054861;28;20222;-70
2023/03/05 08:29:24;;;;;;;5.75;5.15;;;15.00;99.70;;;;;;5048416;28;20206;-69
2023/03/05 08:31:53;;;;;;;5.40;4.90;;;15.00;99.30;;;;;;5036997;28;20226;-70
2023/03/05 08:34:20;;;;;;;5.70;5.15;;;15.10;98.40;;;;;;5037475;28;20239;-70
2023/03/05 08:36:47;;;;;;;7.00;5.15;;;15.00;97.60;;;;;;5037334;28;20226;-69
2023/03/05 08:39:15;;;;;;;5.93;4.65;;;14.90;97.60;;;;;;5036629;28;20291;-69
2023/03/05 08:41:43;;;;;;;4.63;4.22;;;15.20;97.30;;;;;;5041177;28;20302;-69
2023/03/05 08:44:11;;;;;;;5.13;3.90;;;15.70;96.30;;;;;;5037774;28;20480;-69
2023/03/05 08:46:39;;;;;;;4.72;4.28;;;15.70;95.50;;;;;;5042457;28;20225;-69
2023/03/05 08:49:07;;;;;;;5.90;4.57;;;15.80;94.50;;;;;;5041688;28;20288;-69
2023/03/05 08:51:34;;;;;;;5.93;4.40;;;15.50;94.80;;;;;;5035576;28;20223;-69
2023/03/05 08:54:05;;;;;;;4.70;4.30;;;15.20;94.50;;;;;;5040753;28;20198;-70
2023/03/05 08:56:33;;;;;;;5.03;4.25;;;15.00;94.30;;;;;;5039132;28;20192;-69
2023/03/05 08:59:03;;;;;;;7.10;4.60;;;14.70;95.30;;;;;;5037644;28;20973;-69
2023/03/05 09:01:30;;;;;;;4.95;4.47;;;14.40;94.90;;;;;;5042801;28;20582;-70
2023/03/05 09:03:58;;;;;;;6.38;4.78;;;14.30;95.50;;;;;;5038384;28;20217;-70
2023/03/05 09:06:25;;;;;;;4.95;4.10;;;14.30;95.90;;;;;;5035537;28;20302;-70
2023/03/05 09:08:53;;;;;;;7.38;4.53;;;14.10;95.60;;;;;;5041447;28;20286;-72
2023/03/05 09:11:21;;;;;;;6.45;4.22;;;14.10;96.10;;;;;;5041237;28;20266;-70
2023/03/05 09:13:48;;;;;;;7.75;4.78;;;14.40;95.90;;;;;;5036149;28;20615;-70
2023/03/05 09:16:18;;;;;;;5.32;4.57;;;14.40;95.10;;;;;;5040169;28;20324;-70
2023/03/05 09:18:46;;;;;;;6.07;4.88;;;14.50;94.80;;;;;;5039204;28;20310;-70
2023/03/05 09:21:15;;;;;;;5.20;4.70;;;14.50;95.20;;;;;;5037065;28;20254;-70
2023/03/05 09:23:42;;;;;;;4.70;4.20;;;14.80;95.00;;;;;;5041419;28;20746;-70
2023/03/05 09:26:12;;;;;;;5.63;4.63;;;15.30;94.60;;;;;;5043428;28;20195;-70
2023/03/05 09:28:39;;;;;;;4.72;4.20;;;15.40;93.90;;;;;;5038872;28;20646;-70
2023/03/05 09:31:07;;;;;;;4.50;4.10;;;15.70;93.60;;;;;;5042384;28;20246;-70
2023/03/05 09:33:36;;;;;;;5.55;4.78;;;16.10;93.10;;;;;;5037014;28;20211;-70
2023/03/05 09:36:05;;;;;;;4.88;4.30;;;16.20;91.80;;;;;;5035504;28;20203;-69
2023/03/05 09:38:32;;;;;;;5.00;4.38;;;16.00;91.20;;;;;;5034707;28;20203;-71
2023/03/05 09:41:06;;;;;;;4.97;4.05;;;16.00;91.50;;;;;;5033164;28;20590;-71
2023/03/05 09:43:44;;;;;;;4.82;4.32;;;16.10;92.00;;;;;;5034873;28;20302;-70
2023/03/05 09:46:18;;;;;;;4.55;4.07;;;16.30;91.00;;;;;;5036781;28;20226;-71
2023/03/05 09:48:52;;;;;;;5.13;4.43;;;16.10;90.50;;;;;;5036916;28;20210;-71
2023/03/05 09:51:24;;;;;;;4.93;4.50;;;16.20;88.80;;;;;;5036163;28;20583;-71
2023/03/05 09:53:58;;;;;;;6.53;4.47;;;16.40;90.40;;;;;;5034886;28;20238;-71
2023/03/05 09:56:29;;;;;;;5.40;4.40;;;16.50;90.20;;;;;;5040732;28;20195;-71
2023/03/05 09:59:03;;;;;;;4.40;4.00;;;16.70;88.90;;;;;;5038498;28;20294;-72
2023/03/05 10:01:37;;;;;;;6.32;4.53;;;17.00;87.90;;;;;;5033371;28;20229;-71
2023/03/05 10:04:12;;;;;;;4.43;4.00;;;17.00;87.00;;;;;;5039961;28;20194;-71
2023/03/05 10:06:48;;;;;;;4.97;4.32;;;16.90;86.70;;;;;;5033513;28;20286;-71
2023/03/05 10:09:21;;;;;;;6.25;5.50;;;16.80;85.00;;;;;;5037379;28;20190;-71
2023/03/05 10:11:54;;;;;;;6.63;4.55;;;16.30;88.30;;;;;;5041876;28;20258;-71
2023/03/05 10:14:27;;;;;;;5.75;4.47;;;16.10;89.00;;;;;;5040257;28;20757;-72
2023/03/05 10:17:36;;;;;;;6.43;3.95;;;15.80;88.50;;;;;;5043848;28;20195;-72
2023/03/05 10:20:27;;;;;;;6.25;4.68;;;16.10;90.30;;;;;;5016766;28;20282;-71
2023/03/05 10:23:11;;;;;;;4.95;4.30;;;16.60;86.40;;;;;;5038408;28;20895;-72
2023/03/05 10:26:09;;;;;;;4.80;4.40;;;16.80;87.00;;;;;;5044061;28;20202;-71
2023/03/05 10:28:43;;;;;;;5.10;4.60;;;17.10;86.40;;;;;;5015055;28;20325;-71
2023/03/05 10:31:24;;;;;;;4.68;4.28;;;17.10;86.00;;;;;;5039694;28;20233;-72
2023/03/05 10:34:03;;;;;;;4.82;4.43;;;17.00;84.60;;;;;;5037799;28;20731;-72
2023/03/05 10:36:48;;;;;;;4.70;3.95;;;16.70;84.10;;;;;;5039439;28;20281;-72
2023/03/05 10:39:48;;;;;;;5.90;4.55;;;16.50;85.00;;;;;;5043998;28;20207;-72
2023/03/05 10:42:25;;;;;;;5.15;4.53;;;16.70;82.90;;;;;;5043895;28;20692;-71
2023/03/05 10:44:55;;;;;;;5.70;4.22;;;16.60;84.20;;;;;;5042329;28;20284;-72
2023/03/05 10:47:27;;;;;;;5.00;4.50;;;16.70;84.70;;;;;;5044150;28;20306;-72
2023/03/05 10:49:56;;;;;;;7.95;5.38;;;16.90;83.30;;;;;;5044682;28;20289;-72
2023/03/05 10:52:30;;;;;;;5.03;4.63;;;16.80;83.40;;;;;;5042779;28;20298;-71
2023/03/05 10:54:57;;;;;;;4.75;3.78;;;16.80;85.00;;;;;;5047337;28;20285;-71
2023/03/05 10:57:26;;;;;;;5.97;4.97;;;16.80;82.30;;;;;;5042781;28;20238;-72
2023/03/05 10:59:57;;;;;;;5.90;4.30;;;17.10;83.80;;;;;;5046070;28;20239;-72
2023/03/05 11:02:25;;;;;;;6.70;4.53;;;17.30;83.40;;;;;;5044890;28;21197;-72
2023/03/05 11:04:53;;;;;;;4.97;4.47;;;17.10;80.50;;;;;;5045300;28;20265;-72
2023/03/05 11:07:39;;;;;;;4.47;3.80;;;17.10;81.00;;;;;;5047335;28;20223;-72
2023/03/05 11:10:19;;;;;;;7.70;4.75;;;17.10;79.70;;;;;;5041640;28;20223;-71
2023/03/05 11:12:46;;;;;;;5.07;3.95;;;17.00;78.70;;;;;;5045822;28;20261;-72
2023/03/05 11:15:28;;;;;;;6.32;4.15;;;17.10;80.50;;;;;;5044101;28;20732;-72
2023/03/05 11:18:07;;;;;;;5.22;4.72;;;17.00;78.80;;;;;;5033916;28;20207;-72
2023/03/05 11:20:36;;;;;;;4.82;4.35;;;17.10;78.10;;;;;;5038731;28;20303;-72
2023/03/05 11:23:11;;;;;;;6.70;4.50;;;17.30;78.30;;;;;;5047184;28;20226;-72
2023/03/05 11:25:53;;;;;;;5.47;3.97;;;17.30;76.30;;;;;;5038207;28;20206;-72
2023/03/05 11:28:21;;;;;;;4.43;4.03;;;17.10;76.30;;;;;;5042881;28;20318;-72
2023/03/05 11:30:56;;;;;;;4.00;3.70;;;17.30;76.60;;;;;;5046602;28;21007;-69
2023/03/05 11:33:24;;;;;;;5.32;4.05;;;17.20;76.60;;;;;;5040866;28;20305;-69
2023/03/05 11:35:52;;;;;;;4.30;3.55;;;17.10;76.40;;;;;;5045792;28;20736;-69
2023/03/05 11:38:24;;;;;;;4.80;3.42;;;16.90;76.60;;;;;;5038055;28;20285;-69
2023/03/05 11:40:53;;;;;;;5.03;3.88;;;16.80;75.80;;;;;;5039339;28;20257;-70
2023/03/05 11:43:22;;;;;;;5.30;3.58;;;17.00;74.50;;;;;;5042828;28;20286;-69
2023/03/05 11:45:51;;;;;;;3.70;3.40;;;16.90;73.20;;;;;;5035570;28;20207;-71
2023/03/05 11:48:24;;;;;;;3.25;2.95;;;16.80;73.30;;;;;;5034435;28;20235;-71
2023/03/05 11:50:55;;;;;;;3.03;2.80;;;16.70;73.00;;;;;;5042069;28;20207;-70
2023/03/05 11:53:27;;;;;;;4.07;3.10;;;16.80;74.70;;;;;;5035759;28;20290;-70
2023/03/05 11:55:59;;;;;;;3.65;3.20;;;17.00;73.10;;;;;;5042753;28;20208;-73
2023/03/05 11:58:31;;;;;;;3.60;2.75;;;17.00;73.90;;;;;;5040731;28;20227;-72
2023/03/05 12:01:01;;;;;;;4.28;3.28;;;17.00;72.30;;;;;;5045619;28;20294;-72
2023/03/05 12:03:32;;;;;;;3.00;2.80;;;17.00;71.20;;;;;;5038772;28;20731;-73
2023/03/05 12:06:07;;;;;;;2.92;2.63;;;16.90;70.50;;;;;;5037999;28;20277;-73
2023/03/05 12:08:40;;;;;;;4.15;3.13;;;16.80;69.50;;;;;;5039617;28;20337;-73
2023/03/05 12:11:11;;;;;;;3.67;2.60;;;17.00;68.10;;;;;;5036587;28;20215;-73
2023/03/05 12:13:44;;;;;;;3.17;2.88;;;16.80;69.10;;;;;;5042616;28;20191;-72
2023/03/05 12:16:22;;;;;;;2.80;2.60;;;16.70;67.40;;;;;;5042199;28;20261;-72
2023/03/05 12:18:58;;;;;;;3.22;2.75;;;17.00;69.00;;;;;;5037624;28;20277;-73
2023/03/05 12:21:33;;;;;;;3.10;2.80;;;17.30;68.40;;;;;;5046032;28;20227;-72
2023/03/05 12:24:04;;;;;;;2.95;2.75;;;17.20;67.70;;;;;;5047663;28;20201;-72
2023/03/05 12:26:55;;;;;;;3.97;2.90;;;17.20;68.40;;;;;;5039167;28;20294;-73
2023/03/05 12:29:28;;;;;;;4.15;3.28;;;17.40;65.60;;;;;;5043236;28;20222;-72
2023/03/05 12:31:56;;;;;;;4.97;3.25;;;17.20;67.60;;;;;;5038317;28;20565;-73
2023/03/05 12:34:47;;;;;;;3.50;3.20;;;17.30;69.30;;;;;;5041548;28;20301;-73
2023/03/05 12:37:35;;;;;;;3.47;3.00;;;17.10;67.90;;;;;;5046773;28;20191;-72
2023/03/05 12:40:20;;;;;;;4.55;3.30;;;17.00;69.00;;;;;;5043282;28;20234;-73
2023/03/05 12:42:52;;;;;;;6.45;4.40;;;17.20;68.40;;;;;;5043892;28;21120;-73
2023/03/05 12:45:40;;;;;;;3.83;3.47;;;17.20;69.30;;;;;;5044125;28;20281;-73
2023/03/05 12:48:43;;;;;;;4.35;3.95;;;17.10;68.30;;;;;;5044144;28;20223;-72
2023/03/05 12:51:27;;;;;;;4.80;3.47;;;17.30;70.20;;;;;;5044073;28;20218;-72
2023/03/05 12:53:55;;;;;;;4.32;3.92;;;17.40;70.20;;;;;;5044722;28;20709;-72
2023/03/05 12:56:30;;;;;;;9.95;4.68;;;17.50;69.30;;;;;;5042110;28;20293;-73
2023/03/05 12:59:00;;;;;;;4.20;3.80;;;17.50;70.50;;;;;;5051587;28;20201;-72
2023/03/05 13:01:35;;;;;;;4.15;3.75;;;17.30;69.40;;;;;;5044853;28;20779;-73